KDLN/DLN METAR and TAF weather

Enter ICAO airport designator
Station Type Date Time Source
KDLN METAR 2018/12/12 23:53 UTC NOAA

KDLN 122353Z AUTO 24005KT 10SM CLR M03/M11 A3006 RMK AO2 SLP215 T10331111 10017 21039 51029


Station Type Date Time Source
KDLN Decoded METAR 2018/12/12 23:53 UTC NOAA

DILLON AIRPORT, MT, United States (KDLN) 45-15N 112-33W 1591M
Dec 12, 2018 - 06:53 PM EST / 2018.12.12 2353 UTC
Wind: from the WSW (240 degrees) at 6 MPH (5 KT):0
Visibility: 10 mile(s):0
Sky conditions: clear
Temperature: 26.1 F (-3.3 C)
Windchill: 19 F (-7 C):1
Dew Point: 12.0 F (-11.1 C)
Relative Humidity: 54%
Pressure (altimeter): 30.06 in. Hg (1017 hPa)
Pressure tendency: 0.09 inches (2.9 hPa) higher than three hours ago
ob: KDLN 122353Z AUTO 24005KT 10SM CLR M03/M11 A3006 RMK AO2 SLP215 T10331111 10017 21039 51029
cycle: 0

Station Type Date Time Source
KDLN TAF UTC NOAA

Error!


Example: see airport list